Time;durP1;ratioP1;P1;durP2;ratioP2;P2;SDS_P1;SDS_P2;PMS_P1;PMS_P2;Temp;Humidity;BMP_temperature;BMP_pressure;BME280_temperature;BME280_humidity;BME280_pressure;Samples;Min_cycle;Max_cycle;Signal;HPM_P1;HPM_P2
2022/03/24 00:02:12;;;;;;;65.25;39.40;;;5.40;99.90;;;;;;5082664;28;20453;-81
2022/03/24 00:04:38;;;;;;;63.78;39.08;;;5.30;99.90;;;;;;5087258;28;20050;-81
2022/03/24 00:07:05;;;;;;;64.45;39.08;;;5.30;99.90;;;;;;5087565;28;20075;-81
2022/03/24 00:09:31;;;;;;;64.13;39.15;;;5.20;99.90;;;;;;5106274;28;20081;-81
2022/03/24 00:11:57;;;;;;;62.00;38.08;;;5.20;99.90;;;;;;5090512;28;20048;-81
2022/03/24 00:14:23;;;;;;;62.53;39.25;;;5.20;99.90;;;;;;5109545;28;20127;-81
2022/03/24 00:16:49;;;;;;;61.70;38.05;;;5.20;99.90;;;;;;5093674;28;20497;-81
2022/03/24 00:19:19;;;;;;;63.63;39.90;;;5.10;99.90;;;;;;5113826;27;20040;-80
2022/03/24 00:21:46;;;;;;;62.80;39.08;;;5.10;99.90;;;;;;5113628;27;20508;-81
2022/03/24 00:24:12;;;;;;;64.38;39.53;;;5.10;99.90;;;;;;5113976;27;20051;-81
2022/03/24 00:26:37;;;;;;;62.47;40.20;;;5.10;99.90;;;;;;5113011;27;20035;-80
2022/03/24 00:29:04;;;;;;;62.17;39.15;;;5.10;99.90;;;;;;5113589;27;20077;-81
2022/03/24 00:31:30;;;;;;;66.03;39.25;;;5.00;99.90;;;;;;5113304;27;20075;-81
2022/03/24 00:33:56;;;;;;;67.70;39.35;;;5.00;99.90;;;;;;5131455;27;20047;-81
2022/03/24 00:36:22;;;;;;;59.58;38.90;;;4.90;99.90;;;;;;5110113;27;20046;-81
2022/03/24 00:38:52;;;;;;;62.08;39.72;;;4.90;99.90;;;;;;5112530;27;20083;-81
2022/03/24 00:41:20;;;;;;;67.57;39.80;;;4.90;99.90;;;;;;5096449;27;20047;-81
2022/03/24 00:43:48;;;;;;;64.35;38.88;;;4.90;99.90;;;;;;5107934;27;20043;-81
2022/03/24 00:46:15;;;;;;;64.78;40.70;;;4.90;99.90;;;;;;5109882;27;20052;-81
2022/03/24 00:48:41;;;;;;;67.60;40.28;;;4.90;99.90;;;;;;5088574;27;20039;-81
2022/03/24 00:51:07;;;;;;;60.22;37.80;;;4.90;99.90;;;;;;5111404;27;20043;-81
2022/03/24 00:53:33;;;;;;;64.18;39.53;;;4.90;99.90;;;;;;5122773;27;20075;-81
2022/03/24 00:55:59;;;;;;;61.75;38.10;;;4.90;99.90;;;;;;5091944;27;20384;-81
2022/03/24 00:58:25;;;;;;;63.78;39.97;;;4.80;99.90;;;;;;5125546;27;20040;-81
2022/03/24 01:00:53;;;;;;;64.18;39.60;;;4.80;99.90;;;;;;5095321;27;20043;-81
2022/03/24 01:03:19;;;;;;;68.00;40.88;;;4.70;99.90;;;;;;5112628;27;20114;-81
2022/03/24 01:05:47;;;;;;;64.65;40.10;;;4.70;99.90;;;;;;5131472;27;20518;-81
2022/03/24 01:08:16;;;;;;;63.05;38.70;;;4.70;99.90;;;;;;5096514;27;20051;-82
2022/03/24 01:10:42;;;;;;;67.68;39.85;;;4.70;99.90;;;;;;5112799;27;20445;-82
2022/03/24 01:13:08;;;;;;;66.88;41.15;;;4.70;99.90;;;;;;5095524;27;20491;-81
2022/03/24 01:15:34;;;;;;;71.93;42.60;;;4.60;99.90;;;;;;5095217;27;20057;-82
2022/03/24 01:18:00;;;;;;;71.47;41.22;;;4.60;99.90;;;;;;5096677;27;20035;-82
2022/03/24 01:20:30;;;;;;;69.40;40.85;;;4.60;99.90;;;;;;5112681;27;20055;-82
2022/03/24 01:22:58;;;;;;;71.35;40.53;;;4.50;99.90;;;;;;5113130;27;20157;-82
2022/03/24 01:25:27;;;;;;;69.95;41.60;;;4.50;99.90;;;;;;5093231;27;20059;-81
2022/03/24 01:27:53;;;;;;;65.25;40.45;;;5.00;99.90;;;;;;5112324;27;20032;-82
2022/03/24 01:30:20;;;;;;;65.50;40.75;;;4.50;99.90;;;;;;5130048;27;20039;-81
2022/03/24 01:32:46;;;;;;;65.68;41.55;;;4.50;99.90;;;;;;5095116;27;20039;-82
2022/03/24 01:35:14;;;;;;;71.30;42.85;;;4.40;99.90;;;;;;5112119;27;20035;-81
2022/03/24 01:37:40;;;;;;;70.78;42.28;;;4.40;99.90;;;;;;5111667;27;20130;-82
2022/03/24 01:40:08;;;;;;;68.82;41.53;;;4.40;99.90;;;;;;5112222;27;20043;-82
2022/03/24 01:42:35;;;;;;;75.90;43.80;;;4.40;99.90;;;;;;5094487;27;20084;-81
2022/03/24 01:45:02;;;;;;;75.90;41.10;;;4.30;99.90;;;;;;5129609;27;20469;-81
2022/03/24 01:47:28;;;;;;;71.10;43.63;;;4.30;99.90;;;;;;5094464;27;20119;-81
2022/03/24 01:49:58;;;;;;;76.45;43.72;;;4.30;99.90;;;;;;5111353;27;20072;-82
2022/03/24 01:52:25;;;;;;;71.97;42.53;;;4.90;99.90;;;;;;5112151;27;20057;-82
2022/03/24 01:54:56;;;;;;;77.63;43.03;;;4.30;99.90;;;;;;5110623;27;20050;-81
2022/03/24 01:57:23;;;;;;;73.53;43.17;;;4.30;99.90;;;;;;5095100;27;20047;-82
2022/03/24 01:59:49;;;;;;;72.28;43.95;;;4.20;99.90;;;;;;5111412;27;20043;-82
2022/03/24 02:02:15;;;;;;;75.15;43.55;;;4.20;99.90;;;;;;5111056;27;20282;-81
2022/03/24 02:04:43;;;;;;;72.85;41.88;;;4.20;99.90;;;;;;5093338;27;20137;-81
2022/03/24 02:07:13;;;;;;;80.60;43.40;;;4.20;99.90;;;;;;5110406;27;20039;-82
2022/03/24 02:09:39;;;;;;;72.90;43.67;;;4.50;99.90;;;;;;5093960;27;20042;-81
2022/03/24 02:12:07;;;;;;;70.05;41.90;;;4.10;99.90;;;;;;5111052;27;20041;-81
2022/03/24 02:14:33;;;;;;;78.18;44.60;;;4.10;99.90;;;;;;5093811;27;20053;-81
2022/03/24 02:16:59;;;;;;;73.20;42.13;;;4.10;99.90;;;;;;5093673;27;20403;-81
2022/03/24 02:19:26;;;;;;;77.50;43.45;;;4.10;99.90;;;;;;5106980;28;20135;-81
2022/03/24 02:21:54;;;;;;;78.13;44.80;;;4.10;99.90;;;;;;5090340;28;20127;-81
2022/03/24 02:24:23;;;;;;;78.15;44.75;;;4.10;99.90;;;;;;5090152;28;20043;-81
2022/03/24 02:26:50;;;;;;;75.10;43.95;;;4.10;99.90;;;;;;5106590;28;20152;-81
2022/03/24 02:29:17;;;;;;;73.93;42.85;;;4.00;99.90;;;;;;5090185;28;20511;-81
2022/03/24 02:31:48;;;;;;;72.22;42.72;;;4.00;99.90;;;;;;5104807;28;20040;-82
2022/03/24 02:37:00;;;;;;;76.20;43.60;;;4.00;99.90;;;;;;5107021;28;19927;-81
2022/03/24 02:39:26;;;;;;;73.65;41.85;;;4.00;99.90;;;;;;5103968;28;20150;-82
2022/03/24 02:41:53;;;;;;;75.68;42.67;;;3.90;99.90;;;;;;5107164;28;20176;-81
2022/03/24 02:44:20;;;;;;;78.57;44.80;;;3.90;99.90;;;;;;5102553;28;20036;-81
2022/03/24 02:46:47;;;;;;;71.38;41.25;;;3.80;99.90;;;;;;5106490;28;20160;-81
2022/03/24 02:49:17;;;;;;;75.78;41.97;;;3.80;99.90;;;;;;5124685;27;20040;-81
2022/03/24 02:51:43;;;;;;;82.18;45.03;;;3.80;99.90;;;;;;5102760;28;20032;-80
2022/03/24 02:54:10;;;;;;;76.25;43.78;;;3.80;99.90;;;;;;5107602;28;20551;-81
2022/03/24 02:56:37;;;;;;;77.82;43.50;;;3.80;99.90;;;;;;5107459;28;20054;-81
2022/03/24 02:59:04;;;;;;;76.13;45.05;;;3.80;99.90;;;;;;5114166;28;20089;-81
2022/03/24 03:01:30;;;;;;;83.28;46.42;;;3.80;99.90;;;;;;5101632;28;20046;-81
2022/03/24 03:03:56;;;;;;;78.57;44.63;;;3.80;99.90;;;;;;5107083;28;20056;-81
2022/03/24 03:06:22;;;;;;;81.85;43.58;;;3.70;99.90;;;;;;5090658;28;20047;-81
2022/03/24 03:08:49;;;;;;;73.20;41.83;;;3.70;99.90;;;;;;5109414;28;20536;-81
2022/03/24 03:11:21;;;;;;;78.00;44.40;;;3.70;99.90;;;;;;5107168;28;20074;-82
2022/03/24 03:13:48;;;;;;;74.60;43.15;;;3.70;99.90;;;;;;5090251;28;20078;-82
2022/03/24 03:16:13;;;;;;;78.72;44.65;;;3.70;99.90;;;;;;5089955;28;20122;-82
2022/03/24 03:18:42;;;;;;;80.32;46.20;;;3.70;99.90;;;;;;5103872;28;20571;-82
2022/03/24 03:21:09;;;;;;;84.93;44.92;;;3.70;99.90;;;;;;5100143;28;20054;-82
2022/03/24 03:23:38;;;;;;;78.47;44.90;;;3.60;99.90;;;;;;5099909;28;20556;-82
2022/03/24 03:26:11;;;;;;;78.68;43.88;;;3.60;99.90;;;;;;5106490;28;20040;-81
2022/03/24 03:28:38;;;;;;;78.57;44.13;;;3.60;99.90;;;;;;5107325;28;20065;-82
2022/03/24 03:31:05;;;;;;;80.45;45.20;;;3.60;99.90;;;;;;5107329;28;20048;-82
2022/03/24 03:33:32;;;;;;;75.45;44.05;;;3.50;99.90;;;;;;5091347;28;20466;-82
2022/03/24 03:35:58;;;;;;;82.75;44.60;;;3.50;99.90;;;;;;5107179;28;20528;-82
2022/03/24 03:38:24;;;;;;;76.55;42.38;;;3.50;99.90;;;;;;5090514;28;20115;-81
2022/03/24 03:40:52;;;;;;;84.53;46.53;;;3.50;99.90;;;;;;5090165;28;20045;-82
2022/03/24 03:43:18;;;;;;;85.40;46.45;;;3.50;99.90;;;;;;5107529;28;20043;-81
2022/03/24 03:45:44;;;;;;;81.57;45.42;;;3.50;99.90;;;;;;5089386;28;20709;-81
2022/03/24 03:48:10;;;;;;;90.70;47.97;;;3.40;99.90;;;;;;5109336;28;20040;-82
2022/03/24 03:50:37;;;;;;;84.82;46.33;;;3.40;99.90;;;;;;5110206;28;20039;-81
2022/03/24 03:53:03;;;;;;;82.75;44.40;;;3.40;99.90;;;;;;5108542;28;20043;-81
2022/03/24 03:55:29;;;;;;;88.38;45.78;;;3.70;99.90;;;;;;5104550;28;20411;-81
2022/03/24 03:57:55;;;;;;;83.82;44.05;;;3.30;99.90;;;;;;5110547;28;20047;-82
2022/03/24 04:03:05;;;;;;;82.78;44.88;;;3.30;99.90;;;;;;5110134;28;20051;-80
2022/03/24 04:05:32;;;;;;;87.78;48.53;;;3.90;99.90;;;;;;5111594;28;20035;-80
2022/03/24 04:07:58;;;;;;;84.88;46.33;;;3.30;99.90;;;;;;5109559;28;20039;-81
2022/03/24 04:10:26;;;;;;;93.60;48.05;;;3.30;99.90;;;;;;5093272;28;20035;-81
2022/03/24 04:12:52;;;;;;;93.45;50.63;;;3.30;99.90;;;;;;5109568;28;20048;-81
2022/03/24 04:15:18;;;;;;;95.38;50.50;;;3.30;99.90;;;;;;5092424;28;20076;-81
2022/03/24 04:17:44;;;;;;;100.10;51.95;;;3.30;99.90;;;;;;5106704;28;20054;-81
2022/03/24 04:20:12;;;;;;;90.25;49.53;;;3.20;99.90;;;;;;5101696;28;20218;-81
2022/03/24 04:22:37;;;;;;;90.53;49.67;;;3.30;99.90;;;;;;5084941;28;20048;-82
2022/03/24 04:25:05;;;;;;;94.13;49.05;;;3.20;99.90;;;;;;5108472;28;20414;-81
2022/03/24 04:27:30;;;;;;;88.93;49.22;;;3.20;99.90;;;;;;5109971;28;20044;-81
2022/03/24 04:29:56;;;;;;;97.10;50.72;;;3.20;99.90;;;;;;5092083;28;20740;-81
2022/03/24 04:32:22;;;;;;;91.25;49.05;;;3.20;99.90;;;;;;5109810;28;20043;-81
2022/03/24 04:34:47;;;;;;;89.43;47.10;;;3.30;99.90;;;;;;5092665;28;20046;-81
2022/03/24 04:37:15;;;;;;;78.45;43.88;;;3.20;99.90;;;;;;5092419;28;20039;-81
2022/03/24 04:39:41;;;;;;;85.32;46.00;;;3.20;99.90;;;;;;5109661;28;20447;-81
2022/03/24 04:42:08;;;;;;;88.18;47.42;;;3.30;99.90;;;;;;5103823;28;20047;-81
2022/03/24 04:44:34;;;;;;;90.63;49.22;;;3.20;99.90;;;;;;5110348;28;20412;-80
2022/03/24 04:47:00;;;;;;;89.05;48.45;;;3.80;99.90;;;;;;5101089;28;20044;-80
2022/03/24 04:49:28;;;;;;;90.75;48.45;;;3.20;99.90;;;;;;5076180;28;20031;-80
2022/03/24 04:51:55;;;;;;;93.20;48.33;;;3.20;99.90;;;;;;5092463;28;20035;-81
2022/03/24 04:54:20;;;;;;;93.93;49.65;;;3.10;99.90;;;;;;5100488;28;20032;-81
2022/03/24 04:56:46;;;;;;;95.13;50.13;;;3.10;99.90;;;;;;5109408;28;20043;-81
2022/03/24 04:59:12;;;;;;;90.30;47.58;;;3.10;99.90;;;;;;5090455;28;20097;-81
2022/03/24 05:01:38;;;;;;;91.95;48.75;;;3.10;99.90;;;;;;5089279;28;20051;-80
2022/03/24 05:04:07;;;;;;;89.18;47.25;;;3.10;99.90;;;;;;5103771;28;20559;-80
2022/03/24 05:06:35;;;;;;;89.78;46.65;;;3.00;99.90;;;;;;5110766;28;20044;-81
2022/03/24 05:09:00;;;;;;;91.95;49.00;;;3.30;99.90;;;;;;5109319;28;20175;-80
2022/03/24 05:11:26;;;;;;;89.65;48.33;;;3.10;99.90;;;;;;5091369;28;20635;-80
2022/03/24 05:13:52;;;;;;;88.72;48.10;;;3.10;99.90;;;;;;5106988;28;20114;-80
2022/03/24 05:16:18;;;;;;;88.15;46.75;;;3.00;99.90;;;;;;5109523;28;20482;-81
2022/03/24 05:18:44;;;;;;;90.68;47.35;;;3.00;99.90;;;;;;5110020;28;20115;-80
2022/03/24 05:21:10;;;;;;;91.57;48.30;;;3.00;99.90;;;;;;5108796;28;20481;-81
2022/03/24 05:23:36;;;;;;;86.38;46.67;;;3.00;99.90;;;;;;5087820;28;20329;-80
2022/03/24 05:26:02;;;;;;;89.28;47.60;;;3.00;99.90;;;;;;5109459;28;20070;-80
2022/03/24 05:28:28;;;;;;;89.32;46.97;;;3.00;99.90;;;;;;5089292;28;20053;-81
2022/03/24 05:30:53;;;;;;;91.22;47.80;;;3.00;99.90;;;;;;5104875;28;20664;-81
2022/03/24 05:33:19;;;;;;;90.22;48.65;;;3.00;99.90;;;;;;5108678;28;20047;-80
2022/03/24 05:35:45;;;;;;;91.63;47.50;;;3.00;99.90;;;;;;5085569;28;20119;-80
2022/03/24 05:38:10;;;;;;;89.55;47.67;;;2.90;99.90;;;;;;5092221;28;20050;-80
2022/03/24 05:40:36;;;;;;;86.05;46.47;;;3.00;99.90;;;;;;5107484;28;20122;-80
2022/03/24 05:43:03;;;;;;;89.03;47.63;;;3.00;99.90;;;;;;5103740;27;20047;-80
2022/03/24 05:45:29;;;;;;;84.85;44.97;;;3.00;99.90;;;;;;5103604;28;20043;-80
2022/03/24 05:47:54;;;;;;;85.05;46.10;;;3.00;99.90;;;;;;5098827;28;20408;-81
2022/03/24 05:50:20;;;;;;;87.75;45.50;;;3.10;99.90;;;;;;5105789;28;20043;-81
2022/03/24 05:52:49;;;;;;;85.72;46.03;;;3.00;99.90;;;;;;5093118;28;20039;-80
2022/03/24 05:55:18;;;;;;;88.25;46.28;;;3.10;99.90;;;;;;5083969;28;20032;-80
2022/03/24 05:57:44;;;;;;;89.82;45.90;;;3.10;99.90;;;;;;5103113;28;20050;-80
2022/03/24 06:00:12;;;;;;;85.00;46.60;;;3.10;99.90;;;;;;5125897;28;20024;-80
2022/03/24 06:02:38;;;;;;;88.13;45.97;;;3.20;99.90;;;;;;5106906;28;20030;-80
2022/03/24 06:05:09;;;;;;;82.57;46.47;;;3.30;99.90;;;;;;5121574;28;20100;-80
2022/03/24 06:07:36;;;;;;;88.72;46.83;;;3.60;99.90;;;;;;5102676;28;20118;-80
2022/03/24 06:10:01;;;;;;;86.65;45.17;;;4.00;99.90;;;;;;5099943;28;20086;-81
2022/03/24 06:12:27;;;;;;;81.70;44.90;;;4.40;99.90;;;;;;5099565;28;20126;-80
2022/03/24 06:14:53;;;;;;;73.22;40.92;;;4.80;99.90;;;;;;5101822;28;20710;-81
2022/03/24 06:17:21;;;;;;;82.50;45.25;;;5.20;99.90;;;;;;5084957;28;20055;-80
2022/03/24 06:19:52;;;;;;;80.72;44.97;;;5.50;99.90;;;;;;5099990;28;20097;-81
2022/03/24 06:22:18;;;;;;;80.60;43.88;;;5.90;99.90;;;;;;5099920;28;20496;-81
2022/03/24 06:24:46;;;;;;;77.13;43.90;;;6.10;99.90;;;;;;5102390;28;20388;-80
2022/03/24 06:27:11;;;;;;;77.15;43.50;;;6.20;99.90;;;;;;5096716;28;21635;-80
2022/03/24 06:29:37;;;;;;;70.63;41.50;;;6.40;99.90;;;;;;5099166;28;20031;-81
2022/03/24 06:32:04;;;;;;;78.32;43.75;;;6.70;99.90;;;;;;5096405;28;20075;-80
2022/03/24 06:34:29;;;;;;;73.95;41.83;;;7.00;99.90;;;;;;5101632;28;20092;-81
2022/03/24 06:36:55;;;;;;;80.05;44.13;;;7.40;99.90;;;;;;5098903;28;20412;-80
2022/03/24 06:39:22;;;;;;;77.28;44.03;;;7.90;99.90;;;;;;5099064;28;20059;-81
2022/03/24 06:41:48;;;;;;;78.53;45.13;;;8.10;99.90;;;;;;5097291;28;20085;-81
2022/03/24 06:44:14;;;;;;;80.65;45.58;;;8.40;99.90;;;;;;5093443;28;20047;-80
2022/03/24 06:46:40;;;;;;;82.18;46.25;;;8.80;99.90;;;;;;5088836;28;20296;-81
2022/03/24 06:49:07;;;;;;;78.55;43.88;;;9.40;99.90;;;;;;5086887;28;21485;-80
2022/03/24 06:51:34;;;;;;;80.88;45.47;;;9.50;99.90;;;;;;5087521;28;20863;-80
2022/03/24 06:54:01;;;;;;;77.38;45.10;;;9.80;99.90;;;;;;5089933;28;20681;-81
2022/03/24 06:56:27;;;;;;;73.80;43.40;;;10.20;99.90;;;;;;5076099;28;20039;-80
2022/03/24 06:58:53;;;;;;;77.93;45.53;;;10.50;99.90;;;;;;5093631;28;21031;-80
2022/03/24 07:01:19;;;;;;;81.03;45.58;;;10.30;99.90;;;;;;5090034;28;20051;-81
2022/03/24 07:03:45;;;;;;;79.55;45.45;;;10.30;99.90;;;;;;5097167;28;20040;-81
2022/03/24 07:06:11;;;;;;;81.95;47.47;;;10.10;99.90;;;;;;5084546;28;20051;-81
2022/03/24 07:08:37;;;;;;;87.75;50.75;;;10.60;99.90;;;;;;5100640;28;20039;-81
2022/03/24 07:11:04;;;;;;;78.82;47.33;;;11.40;99.90;;;;;;5081128;28;20046;-80
2022/03/24 07:13:30;;;;;;;75.63;46.50;;;12.10;99.90;;;;;;5102512;28;20136;-81
2022/03/24 07:15:56;;;;;;;73.80;42.03;;;12.60;99.90;;;;;;5078046;28;20059;-81
2022/03/24 07:18:22;;;;;;;63.40;39.83;;;13.20;99.90;;;;;;5078440;28;20043;-80
2022/03/24 07:20:48;;;;;;;64.65;37.97;;;13.90;99.90;;;;;;5074411;28;20090;-81
2022/03/24 07:23:15;;;;;;;66.82;39.92;;;14.80;99.90;;;;;;5070559;28;20048;-80
2022/03/24 07:25:40;;;;;;;67.57;41.63;;;14.90;99.90;;;;;;5086328;28;20887;-80
2022/03/24 07:28:07;;;;;;;69.00;42.97;;;15.40;99.90;;;;;;5088914;28;20630;-80
2022/03/24 07:30:33;;;;;;;72.18;41.75;;;16.00;99.90;;;;;;5095814;28;20085;-81
2022/03/24 07:33:00;;;;;;;67.53;44.33;;;16.30;99.90;;;;;;5069596;28;20048;-80
2022/03/24 07:35:28;;;;;;;68.45;43.13;;;16.60;99.90;;;;;;5087998;28;20043;-81
2022/03/24 07:37:53;;;;;;;73.03;45.28;;;16.70;99.90;;;;;;5069520;28;20043;-81
2022/03/24 07:40:23;;;;;;;74.45;46.20;;;16.30;99.90;;;;;;5084259;28;20054;-81
2022/03/24 07:42:57;;;;;;;74.57;46.08;;;15.40;99.90;;;;;;5096093;28;20067;-81
2022/03/24 07:45:24;;;;;;;69.63;44.35;;;14.50;99.90;;;;;;5087635;28;20134;-81
2022/03/24 07:48:05;;;;;;;70.07;43.63;;;13.60;99.90;;;;;;5087113;28;20052;-81
2022/03/24 07:50:39;;;;;;;72.43;46.40;;;13.10;99.90;;;;;;5105226;28;21663;-81
2022/03/24 07:53:14;;;;;;;72.00;45.80;;;12.60;99.90;;;;;;5087567;28;20044;-81
2022/03/24 07:55:41;;;;;;;74.63;48.08;;;12.10;99.90;;;;;;5089045;28;20393;-80
2022/03/24 07:58:12;;;;;;;78.32;49.00;;;11.80;99.90;;;;;;5088530;28;20164;-79
2022/03/24 08:00:38;;;;;;;83.68;48.75;;;11.50;99.90;;;;;;5081336;28;20043;-79
2022/03/24 08:03:12;;;;;;;78.00;48.08;;;11.30;99.90;;;;;;5095113;28;20058;-80
2022/03/24 08:05:38;;;;;;;76.28;50.10;;;11.20;99.90;;;;;;5075793;28;20107;-80
2022/03/24 08:08:05;;;;;;;77.75;48.85;;;11.20;99.90;;;;;;5091714;28;20744;-79
2022/03/24 08:10:30;;;;;;;84.40;51.90;;;11.30;99.90;;;;;;5088936;28;20657;-80
2022/03/24 08:12:56;;;;;;;84.55;52.60;;;11.50;99.90;;;;;;5075100;28;20126;-81
2022/03/24 08:15:22;;;;;;;86.78;53.75;;;11.40;99.90;;;;;;5093405;28;20032;-80
2022/03/24 08:17:48;;;;;;;83.03;53.13;;;11.40;99.90;;;;;;5093543;28;20123;-80
2022/03/24 08:20:14;;;;;;;87.35;54.42;;;11.50;99.90;;;;;;5101314;28;20446;-80
2022/03/24 08:22:39;;;;;;;87.93;55.25;;;11.70;99.90;;;;;;5099061;28;20412;-80
2022/03/24 08:25:08;;;;;;;82.47;53.78;;;11.80;99.90;;;;;;5115535;28;20035;-79
2022/03/24 08:27:37;;;;;;;80.28;50.88;;;12.10;99.90;;;;;;5095534;28;20122;-80
2022/03/24 08:30:04;;;;;;;78.30;50.33;;;11.90;99.90;;;;;;5097832;28;20075;-81
2022/03/24 08:32:30;;;;;;;79.28;50.40;;;12.00;99.90;;;;;;5102461;28;20041;-81
2022/03/24 08:34:56;;;;;;;75.05;47.97;;;12.40;99.90;;;;;;5102282;28;20047;-81
2022/03/24 08:37:21;;;;;;;71.63;48.65;;;12.30;99.90;;;;;;5103866;28;20043;-81
2022/03/24 08:39:47;;;;;;;75.90;47.38;;;12.30;99.90;;;;;;5103826;28;20047;-81
2022/03/24 08:42:13;;;;;;;73.22;46.83;;;12.40;99.90;;;;;;5101313;28;20056;-81
2022/03/24 08:44:39;;;;;;;78.18;47.03;;;12.60;99.90;;;;;;5093079;28;20044;-81
2022/03/24 08:47:05;;;;;;;76.90;47.10;;;12.90;99.90;;;;;;5093274;28;20043;-80
2022/03/24 08:49:31;;;;;;;70.20;46.42;;;13.10;99.90;;;;;;5075366;27;20434;-81
2022/03/24 08:51:57;;;;;;;74.63;48.55;;;13.40;99.90;;;;;;5091728;28;20051;-81
2022/03/24 08:54:23;;;;;;;74.03;49.42;;;13.50;99.90;;;;;;5091486;28;20047;-80
2022/03/24 08:56:49;;;;;;;77.57;48.90;;;13.60;99.90;;;;;;5094755;27;20040;-81
2022/03/24 08:59:15;;;;;;;68.95;46.35;;;13.90;99.90;;;;;;5095692;28;20048;-81
2022/03/24 09:01:43;;;;;;;74.60;46.95;;;14.20;99.90;;;;;;5097111;28;20054;-82
2022/03/24 09:04:10;;;;;;;72.18;48.22;;;13.90;99.90;;;;;;5096507;28;20174;-82
2022/03/24 09:06:37;;;;;;;71.13;46.90;;;14.10;99.90;;;;;;5091774;28;20109;-82
2022/03/24 09:09:05;;;;;;;70.43;45.08;;;14.20;99.90;;;;;;5080646;28;20057;-81
2022/03/24 09:11:31;;;;;;;70.90;46.15;;;14.40;99.90;;;;;;5099514;28;20044;-81
2022/03/24 09:13:57;;;;;;;70.00;46.22;;;14.60;99.90;;;;;;5093973;28;20123;-81
2022/03/24 09:16:23;;;;;;;70.35;47.35;;;14.80;99.90;;;;;;5093790;28;20536;-82
2022/03/24 09:18:49;;;;;;;69.88;44.47;;;14.90;99.90;;;;;;5091146;28;20036;-81
2022/03/24 09:21:16;;;;;;;65.07;44.63;;;15.10;99.90;;;;;;5074265;28;20052;-82
2022/03/24 09:23:43;;;;;;;68.45;44.85;;;15.20;99.90;;;;;;5091410;27;20100;-82
2022/03/24 09:26:09;;;;;;;69.78;44.50;;;15.30;99.90;;;;;;5096296;28;20408;-81
2022/03/24 09:28:35;;;;;;;71.43;44.90;;;15.40;99.90;;;;;;5077218;28;20496;-81
2022/03/24 09:31:01;;;;;;;68.68;43.63;;;15.30;99.90;;;;;;5097135;28;20090;-82
2022/03/24 09:33:26;;;;;;;69.22;44.22;;;15.30;99.90;;;;;;5098749;28;20039;-82
2022/03/24 09:35:52;;;;;;;64.97;45.17;;;15.40;99.90;;;;;;5095738;28;20580;-82
2022/03/24 09:38:18;;;;;;;60.90;41.53;;;15.50;99.90;;;;;;5073850;28;20052;-82
2022/03/24 09:40:45;;;;;;;64.55;43.33;;;15.70;99.90;;;;;;5093107;28;20755;-82
2022/03/24 09:43:14;;;;;;;65.07;42.15;;;15.70;99.90;;;;;;5089755;28;20216;-82
2022/03/24 09:45:44;;;;;;;66.40;44.70;;;15.70;99.90;;;;;;5089972;28;20043;-81
2022/03/24 09:48:11;;;;;;;65.10;43.58;;;15.80;99.90;;;;;;5090588;28;20110;-81
2022/03/24 09:50:37;;;;;;;64.70;42.42;;;15.80;99.90;;;;;;5091757;28;20550;-82
2022/03/24 09:53:05;;;;;;;66.28;43.72;;;15.90;99.90;;;;;;5077976;28;20048;-82
2022/03/24 09:55:32;;;;;;;61.33;43.28;;;15.90;99.90;;;;;;5088669;28;20048;-81
2022/03/24 09:58:02;;;;;;;69.55;43.65;;;15.90;99.90;;;;;;5089456;28;20043;-82
2022/03/24 10:00:28;;;;;;;65.05;42.90;;;15.90;99.90;;;;;;5105469;27;20250;-81
2022/03/24 10:03:21;;;;;;;64.32;42.97;;;15.90;99.90;;;;;;5093124;28;20031;-82
2022/03/24 10:06:02;;;;;;;63.38;41.88;;;16.10;99.90;;;;;;5096648;28;20126;-82
2022/03/24 10:08:29;;;;;;;61.13;40.55;;;16.00;99.90;;;;;;5078126;28;20379;-82
2022/03/24 10:10:58;;;;;;;62.10;43.17;;;16.00;99.90;;;;;;5096825;28;20126;-79
2022/03/24 10:13:44;;;;;;;66.85;41.15;;;16.00;99.90;;;;;;5093621;28;20051;-81
2022/03/24 10:16:11;;;;;;;66.47;42.70;;;16.00;99.90;;;;;;5092317;28;20047;-82
2022/03/24 10:18:37;;;;;;;60.50;38.40;;;15.90;99.90;;;;;;5080637;28;20044;-81
2022/03/24 10:21:11;;;;;;;61.53;41.03;;;15.80;99.90;;;;;;5113374;27;20050;-82
2022/03/24 10:23:44;;;;;;;61.33;39.97;;;15.90;99.90;;;;;;5083299;27;20086;-82
2022/03/24 10:26:10;;;;;;;58.70;39.83;;;16.20;99.90;;;;;;5087505;27;20127;-82
2022/03/24 10:28:35;;;;;;;55.85;38.00;;;16.00;99.90;;;;;;5099066;27;20462;-82
2022/03/24 10:31:03;;;;;;;58.28;38.92;;;16.00;99.90;;;;;;5096999;27;20039;-82
2022/03/24 10:33:36;;;;;;;59.03;38.85;;;15.90;99.90;;;;;;5095775;27;20073;-84
2022/03/24 10:36:19;;;;;;;55.70;37.63;;;15.90;99.90;;;;;;5095696;27;20428;-82
2022/03/24 10:38:48;;;;;;;57.72;36.20;;;15.80;99.90;;;;;;5098772;27;20040;-83
2022/03/24 10:41:26;;;;;;;55.40;36.70;;;16.10;99.90;;;;;;5114113;27;20228;-82
2022/03/24 10:43:58;;;;;;;52.75;34.42;;;15.80;99.90;;;;;;5096839;27;20043;-83
2022/03/24 10:46:31;;;;;;;56.22;36.60;;;15.90;99.90;;;;;;5097318;27;20050;-83
2022/03/24 10:48:57;;;;;;;54.73;35.97;;;15.80;99.90;;;;;;5119880;27;20506;-82
2022/03/24 10:51:28;;;;;;;56.45;32.33;;;15.80;99.90;;;;;;5079214;27;20313;-83
2022/03/24 10:54:12;;;;;;;46.45;30.83;;;15.80;99.90;;;;;;5097580;27;20499;-83
2022/03/24 10:56:52;;;;;;;47.83;31.80;;;15.90;99.90;;;;;;5115715;27;20047;-83
2022/03/24 10:59:19;;;;;;;51.35;33.13;;;15.90;99.90;;;;;;5081105;27;20135;-82
2022/03/24 11:01:46;;;;;;;57.03;35.38;;;16.00;99.90;;;;;;5102088;27;20491;-82
2022/03/24 11:04:13;;;;;;;55.78;35.22;;;16.00;99.90;;;;;;5101165;28;20031;-82
2022/03/24 11:06:48;;;;;;;56.00;35.88;;;16.10;99.90;;;;;;5097927;27;20047;-83
2022/03/24 11:09:28;;;;;;;51.85;35.45;;;16.10;99.90;;;;;;5103072;27;20469;-82
2022/03/24 11:12:22;;;;;;;52.85;33.45;;;16.10;99.90;;;;;;5086087;27;20189;-82
2022/03/24 11:14:51;;;;;;;45.45;30.45;;;16.10;99.80;;;;;;5077640;28;20058;-83
2022/03/24 11:17:25;;;;;;;56.15;32.95;;;16.20;99.50;;;;;;5098503;27;20039;-81
2022/03/24 11:20:13;;;;;;;49.22;32.03;;;16.20;98.60;;;;;;5108890;27;20476;-82
2022/03/24 11:23:24;;;;;;;47.17;30.13;;;16.30;98.40;;;;;;5119407;27;20051;-82
2022/03/24 11:25:54;;;;;;;46.38;30.70;;;16.40;98.40;;;;;;5080378;27;20134;-82
2022/03/24 11:28:21;;;;;;;45.77;30.60;;;16.40;97.20;;;;;;5082438;28;20042;-82
2022/03/24 11:30:47;;;;;;;54.97;31.63;;;16.50;97.20;;;;;;5085474;28;20308;-82
2022/03/24 11:33:16;;;;;;;49.42;29.27;;;16.50;96.90;;;;;;5069826;28;20146;-82
2022/03/24 11:35:43;;;;;;;43.25;27.63;;;16.50;95.90;;;;;;5071709;28;20035;-81
2022/03/24 11:38:09;;;;;;;50.78;29.88;;;16.50;95.00;;;;;;5089059;28;20031;-83
2022/03/24 11:40:36;;;;;;;48.13;31.30;;;16.60;95.40;;;;;;5093089;28;20062;-82
2022/03/24 11:43:10;;;;;;;55.17;35.60;;;16.60;96.00;;;;;;5090890;28;20082;-80
2022/03/24 11:45:49;;;;;;;54.40;33.95;;;16.70;95.60;;;;;;5087228;27;20047;-81
2022/03/24 11:48:18;;;;;;;53.25;33.63;;;16.60;96.10;;;;;;5090322;28;20152;-83
2022/03/24 11:50:52;;;;;;;50.70;32.05;;;16.70;95.50;;;;;;5090699;28;20046;-81
2022/03/24 11:53:30;;;;;;;51.10;31.25;;;16.70;96.00;;;;;;5089526;28;20051;-82
2022/03/24 11:55:59;;;;;;;52.88;34.22;;;16.70;94.90;;;;;;5070557;28;20473;-82
2022/03/24 11:58:55;;;;;;;53.47;31.90;;;16.70;95.30;;;;;;5089266;28;20051;-83
2022/03/24 12:01:20;;;;;;;47.70;33.13;;;16.70;95.40;;;;;;5107122;28;20054;-84
2022/03/24 12:03:50;;;;;;;49.97;32.28;;;16.70;95.00;;;;;;5090698;28;20469;-82
2022/03/24 12:06:18;;;;;;;48.25;32.45;;;16.70;94.70;;;;;;5072560;28;20039;-81
2022/03/24 12:08:47;;;;;;;49.40;33.53;;;16.70;94.90;;;;;;5109039;27;20431;-81
2022/03/24 12:11:31;;;;;;;47.88;31.23;;;16.80;94.30;;;;;;5097721;27;20437;-82
2022/03/24 12:13:59;;;;;;;46.28;30.67;;;16.90;94.90;;;;;;5113037;27;20055;-83
2022/03/24 12:16:26;;;;;;;45.47;30.48;;;16.90;95.00;;;;;;5113709;27;20151;-81
2022/03/24 12:18:53;;;;;;;48.55;31.65;;;17.00;94.50;;;;;;5097944;27;20053;-82
2022/03/24 12:21:23;;;;;;;57.33;32.65;;;16.90;92.70;;;;;;5115291;27;20062;-81
2022/03/24 12:24:17;;;;;;;48.20;31.77;;;16.80;91.90;;;;;;5096716;27;20133;-82
2022/03/24 12:26:54;;;;;;;45.85;30.15;;;16.70;91.10;;;;;;5051485;27;20055;-81
2022/03/24 12:29:27;;;;;;;52.50;31.23;;;16.70;91.40;;;;;;5098784;27;20536;-83
2022/03/24 12:32:10;;;;;;;45.17;29.88;;;16.70;90.60;;;;;;5115864;27;20458;-82
2022/03/24 12:34:45;;;;;;;48.72;30.77;;;16.70;91.50;;;;;;5100057;27;20400;-83
2022/03/24 12:37:26;;;;;;;46.53;31.27;;;16.80;90.70;;;;;;5085473;27;20047;-82
2022/03/24 12:40:05;;;;;;;50.25;30.35;;;16.70;91.00;;;;;;5098716;27;20039;-82
2022/03/24 12:42:51;;;;;;;51.95;30.35;;;16.70;91.00;;;;;;5077783;27;20050;-82
2022/03/24 12:45:27;;;;;;;45.55;30.58;;;16.80;90.40;;;;;;5115238;27;20036;-82